Runaway Bay, Texas
Current Conditions -  °F | °C
As of 11:35 PM on Saturday 25 Oct 2014 (Local Time) from KXBP Reporting Station
Clear Clear  
Wind Chill: 74°   Ceiling: Unl
Heat Index: 74°   Visibility: 10mi
Dew Point: 60°   Wind: 10mph
Humidity: 61%   Direction: 180°S
Pressure: 30.05"   Gusts: NA
Location:  33.1691°N, 97.8246°W
Report Text: KXBP 260435Z AUTO 18009KT 10SM CLR 24/16 A3005 RMK AO2 T02350157
Loading
Personal Weather Stations






























Interactive Weather Map New forecast layout! Learn more

10-Day Weather Forecast

Advertisements
Track Severe Weather on mobile